Time;durP1;ratioP1;P1;durP2;ratioP2;P2;SDS_P1;SDS_P2;PMS_P1;PMS_P2;Temp;Humidity;BMP_temperature;BMP_pressure;BME280_temperature;BME280_humidity;BME280_pressure;Samples;Min_cycle;Max_cycle;Signal;HPM_P1;HPM_P2
2021/10/27 00:00:29;;;;;;;1.50;0.57;;;14.50;99.90;;;;;;5001825;28;20041;-93
2021/10/27 00:02:55;;;;;;;4.20;1.00;;;14.50;99.90;;;;;;5002204;28;20065;-94
2021/10/27 00:05:21;;;;;;;3.35;0.68;;;14.50;99.90;;;;;;5001876;28;20062;-94
2021/10/27 00:07:47;;;;;;;5.75;0.90;;;14.50;99.90;;;;;;5001215;28;20281;-93
2021/10/27 00:10:14;;;;;;;5.60;0.80;;;14.50;99.90;;;;;;4999310;28;20038;-92
2021/10/27 00:12:40;;;;;;;1.40;0.57;;;14.50;99.90;;;;;;5002613;28;20034;-92
2021/10/27 00:15:08;;;;;;;3.83;0.80;;;14.50;99.90;;;;;;5002555;28;20026;-91
2021/10/27 00:17:34;;;;;;;4.57;0.80;;;14.50;99.90;;;;;;4997478;28;20023;-90
2021/10/27 00:20:00;;;;;;;7.60;0.80;;;14.50;99.90;;;;;;5017905;28;20030;-88
2021/10/27 00:22:26;;;;;;;3.33;0.90;;;14.40;99.90;;;;;;5000971;28;20027;-92
2021/10/27 00:24:51;;;;;;;5.10;0.60;;;14.50;99.90;;;;;;5002524;28;20106;-88
2021/10/27 00:27:17;;;;;;;4.18;1.20;;;14.40;99.90;;;;;;5000138;28;20034;-94
2021/10/27 00:29:43;;;;;;;1.83;0.68;;;14.40;99.90;;;;;;4999515;28;20049;-88
2021/10/27 00:32:09;;;;;;;2.83;0.60;;;14.40;99.90;;;;;;5000994;28;20086;-93
2021/10/27 00:34:35;;;;;;;1.25;0.47;;;14.40;99.90;;;;;;5001424;28;20024;-89
2021/10/27 00:37:01;;;;;;;1.17;0.50;;;14.40;99.90;;;;;;5002408;28;20010;-88
2021/10/27 00:39:27;;;;;;;2.88;0.50;;;14.40;99.90;;;;;;5001958;28;20032;-89
2021/10/27 00:41:53;;;;;;;0.93;0.50;;;14.40;99.90;;;;;;5000695;28;20021;-93
2021/10/27 00:44:24;;;;;;;2.72;0.68;;;14.40;99.90;;;;;;5001920;28;20042;-89
2021/10/27 00:46:59;;;;;;;1.73;0.45;;;14.40;99.90;;;;;;5001992;28;20049;-94
2021/10/27 00:49:27;;;;;;;0.93;0.38;;;14.40;99.90;;;;;;5000923;28;20139;-89
2021/10/27 00:51:53;;;;;;;0.30;0.20;;;14.40;99.90;;;;;;5002081;28;20026;-88
2021/10/27 00:54:19;;;;;;;3.38;0.50;;;14.30;99.90;;;;;;5001596;28;20038;-94
2021/10/27 00:56:45;;;;;;;0.43;0.25;;;14.30;99.90;;;;;;5001419;28;20049;-91
2021/10/27 00:59:10;;;;;;;5.20;0.85;;;14.20;99.90;;;;;;5001482;28;20023;-94
2021/10/27 01:01:36;;;;;;;1.83;0.30;;;14.20;99.90;;;;;;4984891;28;20007;-91
2021/10/27 01:04:03;;;;;;;3.72;0.80;;;14.20;99.90;;;;;;5000150;28;20056;-92
2021/10/27 01:06:29;;;;;;;1.27;0.50;;;14.20;99.90;;;;;;5017931;28;20074;-95
2021/10/27 01:08:55;;;;;;;3.20;0.43;;;14.20;99.90;;;;;;5000298;28;20029;-92
2021/10/27 01:11:21;;;;;;;2.33;0.50;;;14.10;99.90;;;;;;5000521;28;20064;-94
2021/10/27 01:13:47;;;;;;;1.42;0.30;;;14.20;99.90;;;;;;5001024;28;20018;-90
2021/10/27 01:16:13;;;;;;;3.63;0.65;;;14.20;99.90;;;;;;4999842;28;20007;-94
2021/10/27 01:18:39;;;;;;;1.63;0.40;;;14.20;99.90;;;;;;5000088;28;20022;-93
2021/10/27 01:21:05;;;;;;;1.27;0.40;;;14.20;99.90;;;;;;4999976;28;20065;-92
2021/10/27 01:23:30;;;;;;;3.15;0.50;;;14.20;99.90;;;;;;5000221;28;20062;-89
2021/10/27 01:26:06;;;;;;;4.40;0.52;;;14.20;99.90;;;;;;5001203;28;20065;-93
2021/10/27 01:28:36;;;;;;;4.07;0.50;;;14.20;99.90;;;;;;5001176;28;20025;-93
2021/10/27 01:31:02;;;;;;;2.13;0.38;;;14.20;99.90;;;;;;4999130;28;20065;-92
2021/10/27 01:33:27;;;;;;;2.40;0.55;;;14.20;99.90;;;;;;5000502;28;20014;-94
2021/10/27 01:35:53;;;;;;;1.10;0.40;;;14.20;99.90;;;;;;5000600;28;20033;-94
2021/10/27 01:38:19;;;;;;;3.55;0.65;;;14.20;99.90;;;;;;5000065;28;20041;-93
2021/10/27 01:40:45;;;;;;;2.55;0.50;;;14.20;99.90;;;;;;4999821;28;20053;-92
2021/10/27 01:43:11;;;;;;;3.45;0.63;;;14.20;99.90;;;;;;4998694;28;20018;-93
2021/10/27 01:45:36;;;;;;;3.33;0.73;;;14.20;99.90;;;;;;4997699;28;20041;-94
2021/10/27 01:48:02;;;;;;;4.10;0.80;;;14.20;99.90;;;;;;4999290;28;20030;-93
2021/10/27 01:50:28;;;;;;;3.17;0.68;;;14.20;99.90;;;;;;4999819;28;20035;-92
2021/10/27 01:52:53;;;;;;;2.53;0.70;;;14.20;99.90;;;;;;4996685;28;20463;-88
2021/10/27 01:55:19;;;;;;;3.25;0.63;;;14.20;99.90;;;;;;4998045;28;20127;-89
2021/10/27 01:57:45;;;;;;;2.97;0.90;;;14.30;99.90;;;;;;5000108;28;20022;-92
2021/10/27 02:00:11;;;;;;;4.95;0.70;;;14.30;99.90;;;;;;5000264;28;20030;-94
2021/10/27 02:02:36;;;;;;;6.07;0.68;;;14.30;99.90;;;;;;5000626;28;20019;-90
2021/10/27 02:05:02;;;;;;;5.72;0.60;;;14.20;99.90;;;;;;4998238;28;20045;-94
2021/10/27 02:07:28;;;;;;;4.43;0.82;;;14.20;99.90;;;;;;4998019;28;20030;-93
2021/10/27 02:09:54;;;;;;;2.63;0.70;;;14.20;99.90;;;;;;4997571;28;20125;-93
2021/10/27 02:12:20;;;;;;;4.50;0.85;;;14.20;99.90;;;;;;5001023;28;20023;-89
2021/10/27 02:14:45;;;;;;;6.03;0.75;;;14.30;99.90;;;;;;4996886;28;20077;-94
2021/10/27 02:17:11;;;;;;;4.32;1.20;;;14.20;99.90;;;;;;4998002;28;20034;-93
2021/10/27 02:19:37;;;;;;;2.85;0.60;;;14.30;99.90;;;;;;4999310;28;20038;-93
2021/10/27 02:22:03;;;;;;;5.25;1.00;;;14.20;99.90;;;;;;5002399;28;20022;-93
2021/10/27 02:24:29;;;;;;;7.22;0.88;;;14.20;99.90;;;;;;5000377;28;20041;-92
2021/10/27 02:26:54;;;;;;;6.28;1.63;;;14.20;99.90;;;;;;5000103;28;20033;-94
2021/10/27 02:29:20;;;;;;;3.95;0.80;;;14.30;99.90;;;;;;4998559;28;20011;-94
2021/10/27 02:31:46;;;;;;;2.75;0.70;;;14.20;99.90;;;;;;5017131;28;20034;-94
2021/10/27 02:34:11;;;;;;;4.90;0.80;;;14.30;99.90;;;;;;4999973;28;20026;-94
2021/10/27 02:36:37;;;;;;;3.10;0.70;;;14.20;99.90;;;;;;5001630;28;20018;-94
2021/10/27 02:39:03;;;;;;;2.42;0.68;;;14.30;99.90;;;;;;4996397;28;20476;-95
2021/10/27 02:41:28;;;;;;;5.82;1.15;;;14.20;99.90;;;;;;5001730;28;20689;-95
2021/10/27 02:43:54;;;;;;;2.30;0.73;;;14.20;99.90;;;;;;5000650;28;20031;-94
2021/10/27 02:46:20;;;;;;;4.30;1.00;;;14.20;99.90;;;;;;5001861;28;20046;-92
2021/10/27 02:49:11;;;;;;;3.50;0.68;;;14.30;99.90;;;;;;5003137;28;20038;-94
2021/10/27 02:51:40;;;;;;;4.30;1.00;;;14.20;99.90;;;;;;5021053;28;20014;-94
2021/10/27 02:54:07;;;;;;;3.88;0.85;;;14.20;99.90;;;;;;5001466;28;20073;-92
2021/10/27 02:56:32;;;;;;;3.42;1.05;;;14.20;99.90;;;;;;5002348;28;20041;-95
2021/10/27 02:58:58;;;;;;;3.70;0.88;;;14.20;99.90;;;;;;5002400;28;20035;-93
2021/10/27 03:01:24;;;;;;;7.15;1.00;;;14.20;99.90;;;;;;5002081;28;20025;-94
2021/10/27 03:03:51;;;;;;;2.72;0.68;;;14.20;99.90;;;;;;5002954;28;20105;-91
2021/10/27 03:06:17;;;;;;;2.78;0.75;;;14.30;99.90;;;;;;4997937;28;20072;-93
2021/10/27 03:08:44;;;;;;;3.00;0.57;;;14.30;99.90;;;;;;4996077;28;20026;-94
2021/10/27 03:11:10;;;;;;;5.43;0.90;;;14.30;99.90;;;;;;4999672;28;20026;-93
2021/10/27 03:13:36;;;;;;;4.65;0.85;;;14.30;99.90;;;;;;4997735;28;20034;-93
2021/10/27 03:16:02;;;;;;;6.50;1.00;;;14.30;99.90;;;;;;4995583;28;20011;-92
2021/10/27 03:18:27;;;;;;;2.92;0.82;;;14.30;99.90;;;;;;4996333;28;20034;-95
2021/10/27 03:20:54;;;;;;;1.75;0.50;;;14.30;99.90;;;;;;4998260;28;20026;-95
2021/10/27 03:23:20;;;;;;;6.65;1.67;;;14.30;99.90;;;;;;5002638;28;20015;-91
2021/10/27 03:25:46;;;;;;;1.73;0.77;;;14.30;99.90;;;;;;5000386;28;20045;-95
2021/10/27 03:28:12;;;;;;;5.20;0.80;;;14.30;99.90;;;;;;5000399;28;20077;-95
2021/10/27 03:30:37;;;;;;;4.78;0.80;;;14.30;99.90;;;;;;5000278;28;20043;-93
2021/10/27 03:33:03;;;;;;;3.65;0.77;;;14.30;99.90;;;;;;5002591;28;20014;-91
2021/10/27 03:35:29;;;;;;;3.63;0.50;;;14.30;99.90;;;;;;4999938;28;20034;-92
2021/10/27 03:37:54;;;;;;;3.83;0.60;;;14.20;99.90;;;;;;4999058;28;20018;-94
2021/10/27 03:40:20;;;;;;;3.67;0.68;;;14.30;99.90;;;;;;4999015;28;20042;-95
2021/10/27 03:42:46;;;;;;;3.78;0.65;;;14.20;99.90;;;;;;4999959;28;20034;-95
2021/10/27 03:45:12;;;;;;;4.05;0.73;;;14.30;99.90;;;;;;4997030;28;20081;-94
2021/10/27 03:47:37;;;;;;;3.67;1.00;;;14.30;99.90;;;;;;4997107;28;20043;-95
2021/10/27 03:50:05;;;;;;;3.58;1.25;;;14.30;99.90;;;;;;4999215;28;20027;-95
2021/10/27 03:52:31;;;;;;;0.85;0.35;;;14.30;99.90;;;;;;4997989;28;20034;-95
2021/10/27 03:54:56;;;;;;;10.63;1.73;;;14.30;99.90;;;;;;4999082;28;20046;-94
2021/10/27 03:57:22;;;;;;;1.98;0.40;;;14.30;99.90;;;;;;5016962;28;20015;-92
2021/10/27 03:59:49;;;;;;;6.45;0.60;;;14.30;99.90;;;;;;5016519;28;20042;-95
2021/10/27 04:02:14;;;;;;;2.72;0.50;;;14.30;99.90;;;;;;4999392;28;20037;-93
2021/10/27 04:04:40;;;;;;;1.08;0.40;;;14.30;99.90;;;;;;5000024;28;20086;-96
2021/10/27 04:07:06;;;;;;;2.92;0.60;;;14.20;99.90;;;;;;4999729;28;20053;-90
2021/10/27 04:09:31;;;;;;;1.20;0.30;;;14.20;99.90;;;;;;4998362;28;20045;-96
2021/10/27 04:11:57;;;;;;;9.13;0.50;;;14.20;99.90;;;;;;5000094;28;20037;-95
2021/10/27 04:14:23;;;;;;;2.38;0.57;;;14.10;99.90;;;;;;4997971;28;20053;-95
2021/10/27 04:16:49;;;;;;;1.80;0.80;;;14.10;99.90;;;;;;4999140;28;20046;-94
2021/10/27 04:19:14;;;;;;;4.00;0.73;;;14.10;99.90;;;;;;4983923;28;20046;-95
2021/10/27 04:21:40;;;;;;;1.95;0.50;;;14.10;99.90;;;;;;5000293;28;20022;-95
2021/10/27 04:24:06;;;;;;;4.82;0.93;;;14.10;99.90;;;;;;5000512;28;20101;-94
2021/10/27 04:26:33;;;;;;;8.05;0.77;;;14.10;99.90;;;;;;4997488;28;20034;-95
2021/10/27 04:28:58;;;;;;;2.80;0.70;;;14.10;99.90;;;;;;5016913;28;20078;-95
2021/10/27 04:31:24;;;;;;;2.35;0.40;;;14.10;99.90;;;;;;4998440;28;20026;-95
2021/10/27 04:33:50;;;;;;;1.50;0.93;;;14.00;99.90;;;;;;4997222;28;20050;-95
2021/10/27 04:36:16;;;;;;;3.10;0.60;;;14.10;99.90;;;;;;4996525;28;20030;-93
2021/10/27 04:38:42;;;;;;;1.15;0.40;;;14.00;99.90;;;;;;4998485;28;20038;-87
2021/10/27 04:41:08;;;;;;;2.85;0.50;;;14.10;99.90;;;;;;4998182;28;20037;-94
2021/10/27 04:43:33;;;;;;;3.33;0.98;;;14.10;99.90;;;;;;4997363;28;20050;-96
2021/10/27 04:45:59;;;;;;;3.10;0.50;;;14.10;99.90;;;;;;4998070;28;20014;-93
2021/10/27 04:48:24;;;;;;;3.97;0.60;;;14.10;99.90;;;;;;4997194;28;20040;-96
2021/10/27 04:50:50;;;;;;;1.50;0.70;;;14.10;99.90;;;;;;4998905;28;20030;-93
2021/10/27 04:53:18;;;;;;;4.28;0.50;;;14.20;99.90;;;;;;5000292;28;20046;-95
2021/10/27 04:55:44;;;;;;;5.75;0.88;;;14.20;99.90;;;;;;4997943;28;20034;-96
2021/10/27 04:58:10;;;;;;;7.18;0.60;;;14.20;99.90;;;;;;4999228;28;20081;-93
2021/10/27 05:00:36;;;;;;;3.92;0.60;;;14.20;99.90;;;;;;4999021;28;20030;-92
2021/10/27 05:03:03;;;;;;;1.75;0.55;;;14.20;99.90;;;;;;4999269;28;20026;-94
2021/10/27 05:05:29;;;;;;;4.60;0.68;;;14.20;99.90;;;;;;4999884;28;20023;-95
2021/10/27 05:07:59;;;;;;;0.98;0.38;;;14.20;99.90;;;;;;4995548;28;20168;-96
2021/10/27 05:10:24;;;;;;;6.35;0.70;;;14.10;99.90;;;;;;4997700;28;20082;-94
2021/10/27 05:12:50;;;;;;;4.50;0.68;;;14.20;99.90;;;;;;4998150;28;20034;-95
2021/10/27 05:15:16;;;;;;;3.03;0.50;;;14.10;99.90;;;;;;4994845;28;20042;-92
2021/10/27 05:17:41;;;;;;;4.35;0.77;;;14.20;99.90;;;;;;4992679;28;20037;-95
2021/10/27 05:20:08;;;;;;;4.93;0.65;;;14.10;99.90;;;;;;4990654;28;20046;-94
2021/10/27 05:22:33;;;;;;;2.22;0.65;;;14.20;99.90;;;;;;4986828;28;20077;-96
2021/10/27 05:24:59;;;;;;;5.13;0.90;;;14.20;99.90;;;;;;4993471;28;20097;-96
2021/10/27 05:27:25;;;;;;;3.10;0.40;;;14.20;99.90;;;;;;4991784;28;20395;-94
2021/10/27 05:29:50;;;;;;;2.30;0.60;;;14.20;99.90;;;;;;4993577;28;20019;-92
2021/10/27 05:32:17;;;;;;;6.93;0.80;;;14.20;99.90;;;;;;4994553;28;20034;-91
2021/10/27 05:34:43;;;;;;;3.00;0.73;;;14.30;99.90;;;;;;4995362;28;20022;-94
2021/10/27 05:37:08;;;;;;;3.10;0.80;;;14.30;99.90;;;;;;4995585;28;20030;-88
2021/10/27 05:39:34;;;;;;;2.35;0.52;;;14.30;99.90;;;;;;4994782;28;20029;-94
2021/10/27 05:42:01;;;;;;;3.88;0.70;;;14.30;99.90;;;;;;4993469;28;20096;-95
2021/10/27 05:44:28;;;;;;;4.25;0.93;;;14.30;99.90;;;;;;4994374;28;20029;-94
2021/10/27 05:46:53;;;;;;;3.53;0.57;;;14.30;99.90;;;;;;4997465;28;20046;-94
2021/10/27 05:51:57;;;;;;;3.20;0.65;;;14.30;99.90;;;;;;5017062;28;20031;-96
2021/10/27 05:57:08;;;;;;;3.00;0.73;;;14.30;99.90;;;;;;5017709;28;20201;-91
2021/10/27 05:59:33;;;;;;;1.50;0.57;;;14.30;99.90;;;;;;5004731;28;20053;-91
2021/10/27 06:01:59;;;;;;;2.80;0.40;;;14.30;99.90;;;;;;5003990;28;20010;-91
2021/10/27 06:04:25;;;;;;;5.22;0.93;;;14.30;99.90;;;;;;5003925;28;20019;-94
2021/10/27 06:06:51;;;;;;;4.13;0.70;;;14.30;99.90;;;;;;5001762;28;20070;-95
2021/10/27 06:09:17;;;;;;;3.55;0.60;;;14.30;99.90;;;;;;5000191;28;20038;-93
2021/10/27 06:11:47;;;;;;;2.72;0.60;;;14.30;99.90;;;;;;5004282;28;20015;-93
2021/10/27 06:14:13;;;;;;;2.97;0.75;;;14.30;99.90;;;;;;4998936;28;20026;-90
2021/10/27 06:16:39;;;;;;;3.33;0.80;;;14.30;99.90;;;;;;5004440;28;20034;-93
2021/10/27 06:19:05;;;;;;;1.60;0.45;;;14.30;99.90;;;;;;5003905;28;20046;-90
2021/10/27 06:21:33;;;;;;;1.90;0.55;;;14.30;99.90;;;;;;5001983;28;20021;-95
2021/10/27 06:23:59;;;;;;;3.72;0.50;;;14.30;99.90;;;;;;5000800;28;20034;-92
2021/10/27 06:26:25;;;;;;;4.88;0.80;;;14.40;99.90;;;;;;5002014;28;20009;-93
2021/10/27 06:29:05;;;;;;;1.08;0.50;;;14.30;99.90;;;;;;4997459;28;20027;-93
2021/10/27 06:31:37;;;;;;;3.63;0.60;;;14.30;99.90;;;;;;5000327;28;20026;-95
2021/10/27 06:34:23;;;;;;;2.58;0.60;;;14.30;99.90;;;;;;5000139;28;20019;-93
2021/10/27 06:47:34;;;;;;;1.70;0.55;;;14.20;99.90;;;;;;4948275;29;20038;-96
2021/10/27 06:50:00;;;;;;;2.28;0.70;;;14.10;99.90;;;;;;4944516;29;20031;-94
2021/10/27 06:52:26;;;;;;;0.50;0.45;;;14.10;99.90;;;;;;4942536;29;20493;-94
2021/10/27 06:54:53;;;;;;;3.80;0.85;;;14.00;99.90;;;;;;4932618;29;20036;-95
2021/10/27 06:57:24;;;;;;;1.23;0.60;;;13.90;99.90;;;;;;4943436;29;20035;-95
2021/10/27 06:59:51;;;;;;;6.18;1.52;;;13.90;99.90;;;;;;4933543;29;20153;-95
2021/10/27 07:03:35;;;;;;;3.10;1.40;;;13.90;99.90;;;;;;4942164;29;20060;-96
2021/10/27 07:16:08;;;;;;;2.08;0.60;;;14.00;99.90;;;;;;4885773;29;20044;-94
2021/10/27 07:18:34;;;;;;;1.58;0.50;;;14.00;99.90;;;;;;4890660;29;20040;-95
2021/10/27 07:21:00;;;;;;;8.25;0.75;;;14.00;99.90;;;;;;4911449;29;20044;-92
2021/10/27 07:23:28;;;;;;;2.53;0.50;;;14.10;99.90;;;;;;4913913;29;20017;-96
2021/10/27 07:25:58;;;;;;;3.38;0.70;;;14.10;99.90;;;;;;4901076;29;20020;-93
2021/10/27 07:28:30;;;;;;;2.47;0.63;;;14.10;99.90;;;;;;4901505;29;20040;-95
2021/10/27 07:30:58;;;;;;;1.30;0.63;;;14.10;99.90;;;;;;4897593;29;20060;-94
2021/10/27 07:33:25;;;;;;;1.02;0.50;;;14.10;99.90;;;;;;4910314;29;20533;-95
2021/10/27 07:35:56;;;;;;;7.28;0.77;;;14.10;99.90;;;;;;4912649;29;20055;-94
2021/10/27 07:41:13;;;;;;;2.95;0.60;;;14.10;99.90;;;;;;4913293;29;20047;-94
2021/10/27 07:43:42;;;;;;;2.38;0.70;;;14.10;99.90;;;;;;4897203;29;20564;-94
2021/10/27 07:46:08;;;;;;;2.05;0.63;;;14.10;99.90;;;;;;4895752;29;20043;-95
2021/10/27 07:48:37;;;;;;;2.33;0.75;;;14.20;99.90;;;;;;4987970;28;20041;-94
2021/10/27 07:51:02;;;;;;;2.85;0.80;;;14.20;99.90;;;;;;4980335;28;20113;-95
2021/10/27 07:53:31;;;;;;;3.85;1.80;;;14.30;99.90;;;;;;4990257;28;20054;-93
2021/10/27 07:56:00;;;;;;;2.38;0.80;;;14.30;99.90;;;;;;4987981;28;20027;-95
2021/10/27 07:58:26;;;;;;;2.20;0.55;;;14.30;99.90;;;;;;4991285;28;20027;-94
2021/10/27 08:00:53;;;;;;;4.07;0.70;;;14.30;99.90;;;;;;4989553;28;20041;-94
2021/10/27 08:03:19;;;;;;;3.33;0.80;;;14.30;99.90;;;;;;4991813;28;20025;-96
2021/10/27 08:05:45;;;;;;;4.22;0.85;;;14.40;99.90;;;;;;4992733;28;20098;-94
2021/10/27 08:08:13;;;;;;;2.50;0.75;;;14.50;99.90;;;;;;4990872;28;20062;-96
2021/10/27 08:10:41;;;;;;;1.92;0.70;;;14.50;99.90;;;;;;4989050;28;20114;-96
2021/10/27 08:13:10;;;;;;;3.30;0.93;;;14.50;99.90;;;;;;4987411;28;20058;-95
2021/10/27 08:15:35;;;;;;;4.13;1.02;;;14.60;99.90;;;;;;4993979;28;20033;-94
2021/10/27 08:18:02;;;;;;;3.25;0.93;;;14.60;99.90;;;;;;4990363;28;20022;-95
2021/10/27 08:20:28;;;;;;;1.33;0.43;;;14.70;99.90;;;;;;4988008;28;20073;-96
2021/10/27 08:22:57;;;;;;;1.70;0.55;;;14.70;99.90;;;;;;4992812;28;20109;-94
2021/10/27 08:25:39;;;;;;;1.60;0.40;;;14.70;99.90;;;;;;4988015;28;20030;-95
2021/10/27 08:28:13;;;;;;;2.28;0.40;;;14.80;99.90;;;;;;4992707;28;20030;-93
2021/10/27 08:31:30;;;;;;;2.88;0.47;;;14.80;99.90;;;;;;4993793;28;20025;-95
2021/10/27 08:33:44;;;;;;;4.57;0.40;;;14.90;99.90;;;;;;5004582;28;20707;-96
2021/10/27 08:36:10;;;;;;;2.25;0.47;;;14.90;99.90;;;;;;4995044;28;20026;-95
2021/10/27 08:38:36;;;;;;;3.85;0.70;;;14.90;99.90;;;;;;4983349;28;20041;-94
2021/10/27 08:41:03;;;;;;;2.05;0.32;;;14.90;99.90;;;;;;4992544;28;20049;-95
2021/10/27 08:43:30;;;;;;;1.40;0.50;;;14.90;99.90;;;;;;4985940;28;20119;-96
2021/10/27 08:45:57;;;;;;;4.47;0.43;;;15.00;99.90;;;;;;4986435;28;20460;-95
2021/10/27 08:48:24;;;;;;;5.05;0.70;;;15.00;99.90;;;;;;4984296;28;20022;-96
2021/10/27 08:50:50;;;;;;;2.28;0.55;;;15.00;99.90;;;;;;4988305;28;20448;-95
2021/10/27 08:53:18;;;;;;;4.35;0.70;;;15.00;99.90;;;;;;4982521;28;20046;-94
2021/10/27 08:55:47;;;;;;;1.65;0.52;;;15.10;99.90;;;;;;4984316;28;20029;-95
2021/10/27 08:58:29;;;;;;;0.40;0.35;;;15.10;99.90;;;;;;4985290;28;20025;-95
2021/10/27 09:01:49;;;;;;;0.77;0.40;;;15.10;99.90;;;;;;4988996;28;20037;-94
2021/10/27 09:07:58;;;;;;;0.98;0.60;;;15.30;99.90;;;;;;5005104;28;20101;-96
2021/10/27 09:36:10;;;;;;;1.55;0.65;;;15.70;99.90;;;;;;5001709;28;20088;-96
2021/10/27 10:06:31;;;;;;;2.60;0.40;;;15.80;99.90;;;;;;4995668;28;20026;-95
2021/10/27 10:08:57;;;;;;;6.93;0.60;;;15.80;99.90;;;;;;4978188;28;20057;-95
2021/10/27 10:11:27;;;;;;;4.75;0.55;;;15.80;99.90;;;;;;4976489;28;20072;-95
2021/10/27 10:13:54;;;;;;;6.22;0.82;;;15.80;99.90;;;;;;4963295;28;20101;-94
2021/10/27 10:16:21;;;;;;;3.72;0.88;;;15.80;99.90;;;;;;4977730;28;20035;-95
2021/10/27 10:18:48;;;;;;;3.55;0.95;;;15.80;99.90;;;;;;4977174;28;20038;-94
2021/10/27 10:21:18;;;;;;;4.30;0.80;;;15.80;99.90;;;;;;4977509;28;20506;-96
2021/10/27 10:23:44;;;;;;;3.40;1.00;;;15.90;99.90;;;;;;4979536;28;20062;-94
2021/10/27 10:26:13;;;;;;;2.88;0.60;;;16.00;99.90;;;;;;4979592;28;20300;-94
2021/10/27 10:28:41;;;;;;;5.30;1.90;;;16.10;99.90;;;;;;4977989;28;20037;-96
2021/10/27 10:31:08;;;;;;;5.38;1.40;;;16.30;99.90;;;;;;4977946;28;20097;-95
2021/10/27 10:33:42;;;;;;;7.25;2.28;;;16.60;99.90;;;;;;4977538;28;20037;-96
2021/10/27 10:36:14;;;;;;;2.38;1.00;;;16.90;99.90;;;;;;4979419;28;20032;-95
2021/10/27 10:44:41;;;;;;;2.60;0.90;;;17.10;99.90;;;;;;4998357;28;20037;-96
2021/10/27 11:24:59;;;;;;;4.38;0.70;;;17.50;99.90;;;;;;4987647;28;20087;-93
2021/10/27 11:38:58;;;;;;;6.55;0.93;;;18.60;99.90;;;;;;5002884;28;20054;-90
2021/10/27 11:41:34;;;;;;;2.50;0.95;;;18.80;99.90;;;;;;5000728;28;20038;-95
2021/10/27 11:44:21;;;;;;;5.00;0.82;;;18.90;99.90;;;;;;4989880;28;20602;-92
2021/10/27 11:46:57;;;;;;;1.77;0.40;;;18.80;99.90;;;;;;4982808;28;20041;-93
2021/10/27 11:49:35;;;;;;;1.92;0.80;;;18.60;99.90;;;;;;4980070;28;20015;-93
2021/10/27 11:52:00;;;;;;;1.95;0.57;;;18.30;99.90;;;;;;4984673;28;20034;-94
2021/10/27 11:54:28;;;;;;;1.15;0.55;;;18.00;99.90;;;;;;4966368;28;20464;-93
2021/10/27 11:56:54;;;;;;;1.90;0.52;;;17.80;99.90;;;;;;4975322;28;20038;-94
2021/10/27 11:59:20;;;;;;;1.02;0.63;;;17.50;99.90;;;;;;4971662;28;20042;-93
2021/10/27 12:02:04;;;;;;;3.80;0.80;;;17.40;99.90;;;;;;4974604;28;20550;-96
2021/10/27 12:04:34;;;;;;;3.03;0.80;;;17.20;99.90;;;;;;4982632;28;20117;-94
2021/10/27 12:09:45;;;;;;;1.17;0.32;;;17.00;99.90;;;;;;4991180;28;20014;-95
2021/10/27 12:18:11;;;;;;;3.17;0.85;;;16.70;99.90;;;;;;4988868;28;20081;-94
2021/10/27 12:20:44;;;;;;;1.88;0.90;;;16.60;99.90;;;;;;4967860;28;20035;-93
2021/10/27 12:23:27;;;;;;;4.18;1.00;;;16.60;99.90;;;;;;4970334;28;20081;-92
2021/10/27 12:26:16;;;;;;;4.38;1.17;;;16.50;99.90;;;;;;4971004;28;20030;-94
2021/10/27 12:28:43;;;;;;;2.95;1.05;;;16.40;99.90;;;;;;4963897;28;20110;-92
2021/10/27 12:31:28;;;;;;;4.57;0.85;;;16.40;99.90;;;;;;4959232;28;20026;-95
2021/10/27 12:33:56;;;;;;;2.85;1.05;;;16.50;99.90;;;;;;4974731;28;20130;-94
2021/10/27 12:36:36;;;;;;;3.42;1.00;;;16.60;99.90;;;;;;4980925;28;20022;-94
2021/10/27 12:39:16;;;;;;;1.02;0.65;;;16.60;99.90;;;;;;4978493;28;20046;-94
2021/10/27 12:41:48;;;;;;;4.28;1.00;;;16.80;99.90;;;;;;4977558;28;20538;-96
2021/10/27 12:44:22;;;;;;;2.42;1.00;;;16.90;99.90;;;;;;4978178;28;20110;-92
2021/10/27 12:47:23;;;;;;;3.00;0.70;;;17.10;99.90;;;;;;4977617;28;20046;-92
2021/10/27 12:50:15;;;;;;;3.53;0.88;;;17.10;99.90;;;;;;4977294;28;20546;-94
2021/10/27 12:52:52;;;;;;;3.83;0.68;;;17.00;99.90;;;;;;4976465;28;20018;-96
2021/10/27 12:55:24;;;;;;;4.30;1.10;;;16.90;99.90;;;;;;4977505;28;20042;-94
2021/10/27 12:57:53;;;;;;;1.67;0.70;;;16.80;99.90;;;;;;4977448;28;20050;-95
2021/10/27 13:00:26;;;;;;;3.38;0.90;;;16.70;99.90;;;;;;4976725;28;20511;-95
2021/10/27 13:03:14;;;;;;;4.05;1.30;;;16.70;99.90;;;;;;4977227;28;20018;-93
2021/10/27 13:05:44;;;;;;;3.08;1.05;;;16.60;99.90;;;;;;4977618;28;20026;-94
2021/10/27 13:08:35;;;;;;;5.88;0.88;;;16.60;99.90;;;;;;4977426;28;20049;-93
2021/10/27 13:30:09;;;;;;;5.90;1.15;;;16.40;99.90;;;;;;4996504;28;20117;-94
2021/10/27 13:32:44;;;;;;;5.82;1.42;;;16.40;99.90;;;;;;4978214;28;20030;-94
2021/10/27 13:35:09;;;;;;;8.35;1.55;;;16.40;99.90;;;;;;4986101;28;20037;-94
2021/10/27 13:37:36;;;;;;;7.28;1.10;;;16.40;99.90;;;;;;4996724;28;20026;-94
2021/10/27 13:40:04;;;;;;;4.90;1.20;;;16.40;99.90;;;;;;4996458;28;20042;-91
2021/10/27 13:48:04;;;;;;;5.45;1.20;;;16.70;99.90;;;;;;4999952;28;20506;-93
2021/10/27 13:59:08;;;;;;;4.72;1.33;;;17.50;99.90;;;;;;5094258;28;20508;-91
2021/10/27 14:10:05;;;;;;;4.53;2.00;;;17.40;99.90;;;;;;5093946;28;20073;-93
2021/10/27 14:15:41;;;;;;;6.78;1.80;;;17.20;99.90;;;;;;5092147;28;20044;-93
2021/10/27 14:40:13;;;;;;;6.45;1.92;;;16.70;99.90;;;;;;5072260;28;20135;-96
2021/10/27 14:51:05;;;;;;;5.20;1.80;;;16.50;99.90;;;;;;5072544;28;20082;-94
2021/10/27 15:19:34;;;;;;;5.20;1.70;;;16.30;99.90;;;;;;5030969;28;20092;-94
2021/10/27 15:20:55;;;;;;;7.75;2.55;;;16.10;99.90;;;;;;5018250;28;20087;-94
2021/10/27 15:26:05;;;;;;;5.50;1.70;;;16.00;99.90;;;;;;5018200;28;20026;-95
2021/10/27 15:33:58;;;;;;;8.35;2.50;;;16.00;99.90;;;;;;5020350;28;20109;-95
2021/10/27 15:36:42;;;;;;;4.32;1.75;;;15.90;99.90;;;;;;5001094;28;20034;-94
2021/10/27 15:44:43;;;;;;;3.25;1.10;;;15.80;99.90;;;;;;5020124;28;20121;-94
2021/10/27 15:52:37;;;;;;;3.65;1.50;;;15.80;99.90;;;;;;5019805;28;20052;-94
2021/10/27 15:55:07;;;;;;;5.32;1.50;;;15.80;99.90;;;;;;5012148;28;20156;-95
2021/10/27 15:57:33;;;;;;;4.68;1.60;;;15.70;99.90;;;;;;5019419;28;20025;-96
2021/10/27 15:59:58;;;;;;;5.35;1.38;;;15.70;99.90;;;;;;5019173;28;20037;-96
2021/10/27 16:02:25;;;;;;;5.53;1.45;;;15.70;99.90;;;;;;5018831;28;20378;-94
2021/10/27 16:04:50;;;;;;;8.05;1.73;;;15.70;99.90;;;;;;5018467;28;20108;-94
2021/10/27 16:07:18;;;;;;;10.02;1.33;;;15.70;99.90;;;;;;5019261;28;20025;-95
2021/10/27 16:09:46;;;;;;;4.22;1.30;;;15.70;99.90;;;;;;5018951;28;20029;-94
2021/10/27 16:12:12;;;;;;;6.28;1.88;;;15.70;99.90;;;;;;5018692;28;20053;-95
2021/10/27 16:14:39;;;;;;;7.50;1.90;;;15.70;99.90;;;;;;5019616;28;20052;-95
2021/10/27 16:17:05;;;;;;;3.65;1.30;;;15.70;99.90;;;;;;5018825;28;20017;-95
2021/10/27 16:19:31;;;;;;;4.95;1.73;;;15.60;99.90;;;;;;5018161;28;20056;-95
2021/10/27 16:21:57;;;;;;;6.85;1.65;;;15.60;99.90;;;;;;5020716;28;20020;-94
2021/10/27 16:24:27;;;;;;;5.35;1.35;;;15.60;99.90;;;;;;5027151;28;20068;-95
2021/10/27 16:26:54;;;;;;;6.35;1.63;;;15.60;99.90;;;;;;5028737;28;20494;-95
2021/10/27 16:29:23;;;;;;;6.72;1.27;;;15.60;99.90;;;;;;5026635;28;20033;-94
2021/10/27 16:31:50;;;;;;;3.97;1.52;;;15.50;99.90;;;;;;5037007;28;20033;-94
2021/10/27 16:34:16;;;;;;;2.92;1.30;;;15.50;99.90;;;;;;5033323;28;20029;-92
2021/10/27 16:36:47;;;;;;;7.57;1.52;;;15.50;99.90;;;;;;5031723;28;20560;-95
2021/10/27 16:39:14;;;;;;;4.25;1.30;;;15.50;99.90;;;;;;5037275;28;20048;-94
2021/10/27 16:41:40;;;;;;;6.90;1.60;;;15.40;99.90;;;;;;5033377;28;20032;-95
2021/10/27 16:44:09;;;;;;;4.20;1.45;;;15.40;99.90;;;;;;5033095;28;20033;-94
2021/10/27 16:46:35;;;;;;;4.00;2.05;;;15.40;99.90;;;;;;5051031;28;20068;-93
2021/10/27 16:49:01;;;;;;;2.63;1.25;;;15.30;99.90;;;;;;5035680;28;20029;-93
2021/10/27 16:51:27;;;;;;;8.02;2.10;;;15.30;99.90;;;;;;5028343;28;20021;-93
2021/10/27 16:53:53;;;;;;;10.25;1.60;;;15.20;99.90;;;;;;5011810;28;20069;-92
2021/10/27 16:56:19;;;;;;;4.20;1.48;;;15.20;99.90;;;;;;4999405;28;20029;-92
2021/10/27 16:58:44;;;;;;;3.30;1.10;;;15.20;99.90;;;;;;4997028;28;20026;-92
2021/10/27 17:01:10;;;;;;;7.57;1.55;;;15.20;99.90;;;;;;4997356;28;20065;-92
2021/10/27 17:03:37;;;;;;;6.38;2.00;;;15.20;99.90;;;;;;5005470;28;20482;-92
2021/10/27 17:06:03;;;;;;;7.88;1.60;;;15.20;99.90;;;;;;5005314;28;20029;-91
2021/10/27 17:08:28;;;;;;;6.65;1.40;;;15.20;99.90;;;;;;4999448;28;20026;-92
2021/10/27 17:10:54;;;;;;;5.10;1.40;;;15.20;99.90;;;;;;5003265;28;20052;-91
2021/10/27 17:13:22;;;;;;;6.57;2.13;;;15.20;99.90;;;;;;5013160;28;20479;-93
2021/10/27 17:15:50;;;;;;;3.78;1.65;;;15.10;99.90;;;;;;5012308;28;20447;-92
2021/10/27 17:18:16;;;;;;;4.22;1.35;;;15.10;99.90;;;;;;5005457;28;20112;-94
2021/10/27 17:20:46;;;;;;;7.15;1.40;;;15.10;99.90;;;;;;5007566;28;20061;-92